sensor_id;sensor_type;location;lat;lon;timestamp;pressure;altitude;pressure_sealevel;temperature;humidity
6028;BME280;3042;43.194;27.646;2022-10-16T00:00:40;102450.75;;;19.85;100.00
6028;BME280;3042;43.194;27.646;2022-10-16T00:03:08;102447.16;;;19.81;100.00
6028;BME280;3042;43.194;27.646;2022-10-16T00:05:39;102443.50;;;20.03;100.00
6028;BME280;3042;43.194;27.646;2022-10-16T00:08:07;102398.06;;;19.28;100.00
6028;BME280;3042;43.194;27.646;2022-10-16T00:10:35;102465.22;;;19.48;100.00
6028;BME280;3042;43.194;27.646;2022-10-16T00:13:04;102450.72;;;19.59;100.00
6028;BME280;3042;43.194;27.646;2022-10-16T00:15:33;102450.84;;;19.63;100.00
6028;BME280;3042;43.194;27.646;2022-10-16T00:18:01;102345.81;;;18.60;100.00
6028;BME280;3042;43.194;27.646;2022-10-16T00:20:29;102459.84;;;19.45;100.00
6028;BME280;3042;43.194;27.646;2022-10-16T00:22:59;102466.75;;;19.43;100.00
6028;BME280;3042;43.194;27.646;2022-10-16T00:25:26;102472.69;;;19.37;100.00
6028;BME280;3042;43.194;27.646;2022-10-16T00:27:53;102469.06;;;19.34;100.00
6028;BME280;3042;43.194;27.646;2022-10-16T00:30:22;102452.63;;;19.64;100.00
6028;BME280;3042;43.194;27.646;2022-10-16T00:32:50;102460.75;;;19.46;100.00
6028;BME280;3042;43.194;27.646;2022-10-16T00:35:17;102464.56;;;19.30;100.00
6028;BME280;3042;43.194;27.646;2022-10-16T00:37:44;102458.91;;;19.19;100.00
6028;BME280;3042;43.194;27.646;2022-10-16T00:40:11;102464.25;;;19.22;100.00
6028;BME280;3042;43.194;27.646;2022-10-16T00:42:39;102466.94;;;19.24;100.00
6028;BME280;3042;43.194;27.646;2022-10-16T00:45:08;102462.03;;;19.33;100.00
6028;BME280;3042;43.194;27.646;2022-10-16T00:47:39;102455.22;;;19.38;100.00
6028;BME280;3042;43.194;27.646;2022-10-16T00:50:11;102460.88;;;19.25;100.00
6028;BME280;3042;43.194;27.646;2022-10-16T00:52:44;102457.41;;;19.26;100.00
6028;BME280;3042;43.194;27.646;2022-10-16T00:55:13;102464.53;;;19.06;100.00
6028;BME280;3042;43.194;27.646;2022-10-16T00:57:41;102462.75;;;19.05;100.00
6028;BME280;3042;43.194;27.646;2022-10-16T01:00:10;102462.69;;;19.03;100.00
6028;BME280;3042;43.194;27.646;2022-10-16T01:02:40;102468.06;;;19.06;100.00
6028;BME280;3042;43.194;27.646;2022-10-16T01:05:08;102475.13;;;18.85;100.00
6028;BME280;3042;43.194;27.646;2022-10-16T01:07:43;102471.63;;;19.08;100.00
6028;BME280;3042;43.194;27.646;2022-10-16T01:10:19;102479.59;;;18.89;100.00
6028;BME280;3042;43.194;27.646;2022-10-16T01:12:55;102484.84;;;18.89;100.00
6028;BME280;3042;43.194;27.646;2022-10-16T01:15:27;102387.44;;;18.09;100.00
6028;BME280;3042;43.194;27.646;2022-10-16T01:18:02;102494.09;;;18.79;100.00
6028;BME280;3042;43.194;27.646;2022-10-16T01:20:35;102498.03;;;18.69;100.00
6028;BME280;3042;43.194;27.646;2022-10-16T01:23:13;102500.97;;;18.77;100.00
6028;BME280;3042;43.194;27.646;2022-10-16T01:26:04;102359.25;;;18.02;100.00
6028;BME280;3042;43.194;27.646;2022-10-16T01:28:41;102453.84;;;18.54;100.00
6028;BME280;3042;43.194;27.646;2022-10-16T01:31:15;102517.59;;;18.77;100.00
6028;BME280;3042;43.194;27.646;2022-10-16T01:33:47;102513.69;;;18.68;100.00
6028;BME280;3042;43.194;27.646;2022-10-16T01:36:18;102518.50;;;18.57;100.00
6028;BME280;3042;43.194;27.646;2022-10-16T01:38:49;102472.72;;;18.04;100.00
6028;BME280;3042;43.194;27.646;2022-10-16T01:41:21;102519.50;;;18.17;100.00
6028;BME280;3042;43.194;27.646;2022-10-16T01:43:57;102522.22;;;18.20;100.00
6028;BME280;3042;43.194;27.646;2022-10-16T01:46:30;102530.56;;;17.90;100.00
6028;BME280;3042;43.194;27.646;2022-10-16T01:49:00;102529.06;;;17.57;100.00
6028;BME280;3042;43.194;27.646;2022-10-16T01:51:29;102540.81;;;17.47;100.00
6028;BME280;3042;43.194;27.646;2022-10-16T01:53:59;102530.44;;;17.68;100.00
6028;BME280;3042;43.194;27.646;2022-10-16T01:56:27;102528.22;;;17.58;100.00
6028;BME280;3042;43.194;27.646;2022-10-16T01:58:59;102449.97;;;17.22;100.00
6028;BME280;3042;43.194;27.646;2022-10-16T02:01:31;102540.19;;;17.52;100.00
6028;BME280;3042;43.194;27.646;2022-10-16T02:04:03;102470.16;;;17.06;100.00
6028;BME280;3042;43.194;27.646;2022-10-16T02:06:32;102546.75;;;17.05;100.00
6028;BME280;3042;43.194;27.646;2022-10-16T02:09:00;102546.66;;;17.04;100.00
6028;BME280;3042;43.194;27.646;2022-10-16T02:11:27;102544.44;;;17.12;100.00
6028;BME280;3042;43.194;27.646;2022-10-16T02:14:00;102535.66;;;17.48;100.00
6028;BME280;3042;43.194;27.646;2022-10-16T02:16:33;102521.47;;;17.63;100.00
6028;BME280;3042;43.194;27.646;2022-10-16T02:19:02;102480.69;;;17.27;100.00
6028;BME280;3042;43.194;27.646;2022-10-16T02:21:34;102350.81;;;16.47;100.00
6028;BME280;3042;43.194;27.646;2022-10-16T02:24:09;102515.59;;;17.86;100.00
6028;BME280;3042;43.194;27.646;2022-10-16T02:26:40;102517.22;;;17.84;100.00
6028;BME280;3042;43.194;27.646;2022-10-16T02:29:14;102527.69;;;17.84;100.00
6028;BME280;3042;43.194;27.646;2022-10-16T02:31:46;102401.91;;;17.18;100.00
6028;BME280;3042;43.194;27.646;2022-10-16T02:34:16;102526.03;;;17.86;100.00
6028;BME280;3042;43.194;27.646;2022-10-16T02:36:45;102526.28;;;17.92;100.00
6028;BME280;3042;43.194;27.646;2022-10-16T02:39:15;102528.13;;;17.95;100.00
6028;BME280;3042;43.194;27.646;2022-10-16T02:41:43;102538.00;;;17.81;100.00
6028;BME280;3042;43.194;27.646;2022-10-16T02:44:12;102529.19;;;17.99;100.00
6028;BME280;3042;43.194;27.646;2022-10-16T02:46:39;102530.56;;;17.71;100.00
6028;BME280;3042;43.194;27.646;2022-10-16T02:49:06;102534.00;;;17.70;100.00
6028;BME280;3042;43.194;27.646;2022-10-16T02:51:33;102536.56;;;17.68;100.00
6028;BME280;3042;43.194;27.646;2022-10-16T02:54:01;102528.59;;;17.85;100.00
6028;BME280;3042;43.194;27.646;2022-10-16T02:56:29;102544.28;;;17.65;100.00
6028;BME280;3042;43.194;27.646;2022-10-16T02:58:56;102562.75;;;16.94;100.00
6028;BME280;3042;43.194;27.646;2022-10-16T03:01:25;102557.19;;;17.05;100.00
6028;BME280;3042;43.194;27.646;2022-10-16T03:03:52;102561.41;;;16.84;100.00
6028;BME280;3042;43.194;27.646;2022-10-16T03:06:19;102567.28;;;16.98;100.00
6028;BME280;3042;43.194;27.646;2022-10-16T03:08:47;102455.47;;;15.49;100.00
6028;BME280;3042;43.194;27.646;2022-10-16T03:11:14;102578.78;;;15.97;100.00
6028;BME280;3042;43.194;27.646;2022-10-16T03:13:41;102565.81;;;16.33;100.00
6028;BME280;3042;43.194;27.646;2022-10-16T03:16:08;102564.66;;;16.44;100.00
6028;BME280;3042;43.194;27.646;2022-10-16T03:18:37;102565.03;;;16.70;100.00
6028;BME280;3042;43.194;27.646;2022-10-16T03:21:04;102571.13;;;16.52;100.00
6028;BME280;3042;43.194;27.646;2022-10-16T03:23:32;102574.81;;;16.56;100.00
6028;BME280;3042;43.194;27.646;2022-10-16T03:25:59;102575.97;;;16.44;100.00
6028;BME280;3042;43.194;27.646;2022-10-16T03:28:26;102577.00;;;16.48;100.00
6028;BME280;3042;43.194;27.646;2022-10-16T03:30:53;102531.22;;;16.19;100.00
6028;BME280;3042;43.194;27.646;2022-10-16T03:33:21;102571.44;;;16.58;100.00
6028;BME280;3042;43.194;27.646;2022-10-16T03:35:53;102246.59;;;15.04;100.00
6028;BME280;3042;43.194;27.646;2022-10-16T03:38:21;102296.84;;;15.03;100.00
6028;BME280;3042;43.194;27.646;2022-10-16T03:40:48;102578.09;;;16.70;100.00
6028;BME280;3042;43.194;27.646;2022-10-16T03:43:15;102572.66;;;16.65;100.00
6028;BME280;3042;43.194;27.646;2022-10-16T03:45:43;102409.88;;;15.73;100.00
6028;BME280;3042;43.194;27.646;2022-10-16T03:48:10;102579.78;;;16.51;100.00
6028;BME280;3042;43.194;27.646;2022-10-16T03:50:37;102452.63;;;15.77;100.00
6028;BME280;3042;43.194;27.646;2022-10-16T03:53:06;102588.59;;;16.53;100.00
6028;BME280;3042;43.194;27.646;2022-10-16T03:55:34;102592.22;;;16.39;100.00
6028;BME280;3042;43.194;27.646;2022-10-16T03:58:01;102587.16;;;16.42;100.00
6028;BME280;3042;43.194;27.646;2022-10-16T04:00:28;102593.19;;;16.41;100.00
6028;BME280;3042;43.194;27.646;2022-10-16T04:02:56;102590.00;;;16.46;100.00
6028;BME280;3042;43.194;27.646;2022-10-16T04:05:23;102592.38;;;16.42;100.00
6028;BME280;3042;43.194;27.646;2022-10-16T04:07:50;102597.38;;;16.37;100.00
6028;BME280;3042;43.194;27.646;2022-10-16T04:10:19;102587.91;;;16.57;100.00
6028;BME280;3042;43.194;27.646;2022-10-16T04:12:46;102587.81;;;16.38;100.00
6028;BME280;3042;43.194;27.646;2022-10-16T04:15:13;102593.97;;;16.22;100.00
6028;BME280;3042;43.194;27.646;2022-10-16T04:17:41;102591.44;;;16.23;100.00
6028;BME280;3042;43.194;27.646;2022-10-16T04:20:08;102588.13;;;16.10;100.00
6028;BME280;3042;43.194;27.646;2022-10-16T04:22:36;102603.41;;;15.86;100.00
6028;BME280;3042;43.194;27.646;2022-10-16T04:25:03;102604.38;;;15.71;100.00
6028;BME280;3042;43.194;27.646;2022-10-16T04:27:32;102589.47;;;16.19;100.00
6028;BME280;3042;43.194;27.646;2022-10-16T04:30:00;102514.16;;;15.58;100.00
6028;BME280;3042;43.194;27.646;2022-10-16T04:32:27;102602.25;;;15.97;100.00
6028;BME280;3042;43.194;27.646;2022-10-16T04:34:54;102601.41;;;15.98;100.00
6028;BME280;3042;43.194;27.646;2022-10-16T04:37:23;102586.53;;;16.30;100.00
6028;BME280;3042;43.194;27.646;2022-10-16T04:39:51;102608.91;;;15.92;100.00
6028;BME280;3042;43.194;27.646;2022-10-16T04:42:18;102603.34;;;16.18;100.00
6028;BME280;3042;43.194;27.646;2022-10-16T04:44:47;102599.09;;;16.37;100.00
6028;BME280;3042;43.194;27.646;2022-10-16T04:47:14;102598.34;;;16.39;100.00
6028;BME280;3042;43.194;27.646;2022-10-16T04:49:41;102550.59;;;16.24;100.00
6028;BME280;3042;43.194;27.646;2022-10-16T04:52:09;102615.78;;;16.40;100.00
6028;BME280;3042;43.194;27.646;2022-10-16T04:54:36;102619.03;;;16.36;100.00
6028;BME280;3042;43.194;27.646;2022-10-16T04:57:03;102624.69;;;16.28;100.00
6028;BME280;3042;43.194;27.646;2022-10-16T04:59:30;102612.13;;;16.55;100.00
6028;BME280;3042;43.194;27.646;2022-10-16T05:01:59;102584.38;;;16.91;100.00
6028;BME280;3042;43.194;27.646;2022-10-16T05:04:26;102603.69;;;16.95;100.00
6028;BME280;3042;43.194;27.646;2022-10-16T05:06:53;102441.34;;;16.12;100.00
6028;BME280;3042;43.194;27.646;2022-10-16T05:09:21;102608.06;;;17.14;100.00
6028;BME280;3042;43.194;27.646;2022-10-16T05:11:48;102613.59;;;17.20;100.00
6028;BME280;3042;43.194;27.646;2022-10-16T05:14:15;102546.91;;;16.73;100.00
6028;BME280;3042;43.194;27.646;2022-10-16T05:16:43;102610.31;;;17.24;100.00
6028;BME280;3042;43.194;27.646;2022-10-16T05:19:11;102603.88;;;17.35;100.00
6028;BME280;3042;43.194;27.646;2022-10-16T05:21:38;102606.13;;;17.27;100.00
6028;BME280;3042;43.194;27.646;2022-10-16T05:24:06;102621.22;;;17.33;100.00
6028;BME280;3042;43.194;27.646;2022-10-16T05:26:37;102554.41;;;17.20;100.00
6028;BME280;3042;43.194;27.646;2022-10-16T05:29:10;102565.94;;;17.06;100.00
6028;BME280;3042;43.194;27.646;2022-10-16T05:31:37;102618.72;;;17.36;100.00
6028;BME280;3042;43.194;27.646;2022-10-16T05:34:04;102619.50;;;17.53;100.00
6028;BME280;3042;43.194;27.646;2022-10-16T05:36:33;102499.19;;;17.32;100.00
6028;BME280;3042;43.194;27.646;2022-10-16T05:39:00;102621.00;;;18.05;100.00
6028;BME280;3042;43.194;27.646;2022-10-16T05:41:28;102619.66;;;18.34;100.00
6028;BME280;3042;43.194;27.646;2022-10-16T05:43:55;102618.81;;;18.56;100.00
6028;BME280;3042;43.194;27.646;2022-10-16T05:46:22;102609.53;;;18.84;100.00
6028;BME280;3042;43.194;27.646;2022-10-16T05:48:52;102563.16;;;18.81;100.00
6028;BME280;3042;43.194;27.646;2022-10-16T05:51:19;102529.88;;;18.16;100.00
6028;BME280;3042;43.194;27.646;2022-10-16T05:53:48;102575.44;;;18.21;100.00
6028;BME280;3042;43.194;27.646;2022-10-16T05:56:16;102651.00;;;18.13;100.00
6028;BME280;3042;43.194;27.646;2022-10-16T05:58:43;102639.53;;;18.30;100.00
6028;BME280;3042;43.194;27.646;2022-10-16T06:01:12;102506.97;;;17.89;100.00
6028;BME280;3042;43.194;27.646;2022-10-16T06:03:40;102516.22;;;18.02;100.00
6028;BME280;3042;43.194;27.646;2022-10-16T06:06:08;102522.22;;;18.20;100.00
6028;BME280;3042;43.194;27.646;2022-10-16T06:08:35;102629.31;;;18.98;100.00
6028;BME280;3042;43.194;27.646;2022-10-16T06:11:06;102618.34;;;19.76;100.00
6028;BME280;3042;43.194;27.646;2022-10-16T06:13:33;102616.38;;;19.94;100.00
6028;BME280;3042;43.194;27.646;2022-10-16T06:16:02;102624.53;;;20.26;100.00
6028;BME280;3042;43.194;27.646;2022-10-16T06:18:30;102526.53;;;19.76;100.00
6028;BME280;3042;43.194;27.646;2022-10-16T06:20:57;102618.72;;;20.35;100.00
6028;BME280;3042;43.194;27.646;2022-10-16T06:23:25;102620.16;;;20.52;100.00
6028;BME280;3042;43.194;27.646;2022-10-16T06:26:05;102635.16;;;20.05;100.00
6028;BME280;3042;43.194;27.646;2022-10-16T06:28:33;102643.31;;;20.13;100.00
6028;BME280;3042;43.194;27.646;2022-10-16T06:31:00;102646.75;;;19.88;100.00
6028;BME280;3042;43.194;27.646;2022-10-16T06:33:27;102610.19;;;19.92;100.00
6028;BME280;3042;43.194;27.646;2022-10-16T06:36:00;102614.72;;;20.99;100.00
6028;BME280;3042;43.194;27.646;2022-10-16T06:38:28;102600.16;;;20.81;99.46
6028;BME280;3042;43.194;27.646;2022-10-16T06:40:55;102470.19;;;20.16;96.64
6028;BME280;3042;43.194;27.646;2022-10-16T06:43:24;102553.22;;;20.94;97.02
6028;BME280;3042;43.194;27.646;2022-10-16T06:45:52;102611.84;;;21.47;96.13
6028;BME280;3042;43.194;27.646;2022-10-16T06:48:19;102631.88;;;21.16;93.77
6028;BME280;3042;43.194;27.646;2022-10-16T06:50:56;102529.13;;;20.53;93.65
6028;BME280;3042;43.194;27.646;2022-10-16T06:53:24;102633.56;;;21.41;93.68
6028;BME280;3042;43.194;27.646;2022-10-16T06:55:51;102626.28;;;21.61;93.18
6028;BME280;3042;43.194;27.646;2022-10-16T06:58:18;102545.44;;;21.27;92.01
6028;BME280;3042;43.194;27.646;2022-10-16T07:00:47;102616.19;;;22.08;92.22
6028;BME280;3042;43.194;27.646;2022-10-16T07:03:15;102531.00;;;21.41;90.73
6028;BME280;3042;43.194;27.646;2022-10-16T07:05:42;102620.66;;;22.11;90.11
6028;BME280;3042;43.194;27.646;2022-10-16T07:08:10;102619.91;;;22.17;89.39
6028;BME280;3042;43.194;27.646;2022-10-16T07:10:37;102527.47;;;21.73;88.48
6028;BME280;3042;43.194;27.646;2022-10-16T07:13:04;102617.69;;;22.30;87.44
6028;BME280;3042;43.194;27.646;2022-10-16T07:15:33;102610.53;;;22.60;87.53
6028;BME280;3042;43.194;27.646;2022-10-16T07:18:02;102602.28;;;22.82;87.39
6028;BME280;3042;43.194;27.646;2022-10-16T07:20:29;102602.84;;;22.69;86.61
6028;BME280;3042;43.194;27.646;2022-10-16T07:22:57;102599.63;;;22.82;86.72
6028;BME280;3042;43.194;27.646;2022-10-16T07:25:24;102606.78;;;22.86;85.41
6028;BME280;3042;43.194;27.646;2022-10-16T07:27:51;102602.03;;;23.08;84.74
6028;BME280;3042;43.194;27.646;2022-10-16T07:30:21;102607.75;;;22.91;83.63
6028;BME280;3042;43.194;27.646;2022-10-16T07:32:48;102507.06;;;21.97;82.67
6028;BME280;3042;43.194;27.646;2022-10-16T07:35:17;102466.84;;;22.03;83.36
6028;BME280;3042;43.194;27.646;2022-10-16T07:37:45;102609.47;;;22.89;84.32
6028;BME280;3042;43.194;27.646;2022-10-16T07:40:12;102601.59;;;22.91;83.17
6028;BME280;3042;43.194;27.646;2022-10-16T07:42:39;102638.94;;;22.38;83.33
6028;BME280;3042;43.194;27.646;2022-10-16T07:45:07;102613.91;;;22.92;81.29
6028;BME280;3042;43.194;27.646;2022-10-16T07:47:35;102625.75;;;22.71;82.85
6028;BME280;3042;43.194;27.646;2022-10-16T07:50:02;102553.38;;;22.57;81.40
6028;BME280;3042;43.194;27.646;2022-10-16T07:52:31;102620.38;;;23.03;79.71
6028;BME280;3042;43.194;27.646;2022-10-16T07:54:58;102625.00;;;22.77;79.75
6028;BME280;3042;43.194;27.646;2022-10-16T07:57:25;102644.66;;;22.22;80.08
6028;BME280;3042;43.194;27.646;2022-10-16T07:59:52;102453.78;;;21.09;81.73
6028;BME280;3042;43.194;27.646;2022-10-16T08:02:20;102629.50;;;22.46;80.86
6028;BME280;3042;43.194;27.646;2022-10-16T08:04:47;102623.06;;;22.70;80.35
6028;BME280;3042;43.194;27.646;2022-10-16T08:07:15;102523.41;;;21.52;80.70
6028;BME280;3042;43.194;27.646;2022-10-16T08:09:44;102635.47;;;22.39;81.97
6028;BME280;3042;43.194;27.646;2022-10-16T08:12:11;102640.97;;;22.17;82.10
6028;BME280;3042;43.194;27.646;2022-10-16T08:14:38;102619.13;;;22.52;82.57
6028;BME280;3042;43.194;27.646;2022-10-16T08:17:06;102611.28;;;22.90;81.18
6028;BME280;3042;43.194;27.646;2022-10-16T08:19:33;102606.47;;;23.09;81.02
6028;BME280;3042;43.194;27.646;2022-10-16T08:22:00;102612.25;;;22.95;80.48
6028;BME280;3042;43.194;27.646;2022-10-16T08:24:28;102609.06;;;23.07;80.81
6028;BME280;3042;43.194;27.646;2022-10-16T08:26:58;102583.47;;;23.44;79.79
6028;BME280;3042;43.194;27.646;2022-10-16T08:29:25;102588.50;;;23.33;79.33
6028;BME280;3042;43.194;27.646;2022-10-16T08:31:52;102604.19;;;22.89;78.30
6028;BME280;3042;43.194;27.646;2022-10-16T08:34:19;102612.59;;;22.38;77.22
6028;BME280;3042;43.194;27.646;2022-10-16T08:36:47;102607.47;;;22.79;78.71
6028;BME280;3042;43.194;27.646;2022-10-16T08:39:15;102603.00;;;22.40;78.68
6028;BME280;3042;43.194;27.646;2022-10-16T08:42:11;102507.28;;;22.40;78.34
6028;BME280;3042;43.194;27.646;2022-10-16T08:45:02;102593.72;;;23.30;77.03
6028;BME280;3042;43.194;27.646;2022-10-16T08:47:44;102601.38;;;23.18;78.76
6028;BME280;3042;43.194;27.646;2022-10-16T08:50:18;102589.97;;;23.60;77.28
6028;BME280;3042;43.194;27.646;2022-10-16T08:52:48;102598.09;;;23.28;76.56
6028;BME280;3042;43.194;27.646;2022-10-16T08:55:30;102470.94;;;23.04;75.06
6028;BME280;3042;43.194;27.646;2022-10-16T08:57:59;102594.97;;;23.48;75.58
6028;BME280;3042;43.194;27.646;2022-10-16T09:00:27;102299.72;;;21.16;75.93
6028;BME280;3042;43.194;27.646;2022-10-16T09:03:02;102583.28;;;23.77;76.80
6028;BME280;3042;43.194;27.646;2022-10-16T09:05:49;102437.22;;;22.48;76.19
6028;BME280;3042;43.194;27.646;2022-10-16T09:08:24;102588.97;;;23.14;75.10
6028;BME280;3042;43.194;27.646;2022-10-16T09:10:57;102511.19;;;22.21;76.56
6028;BME280;3042;43.194;27.646;2022-10-16T09:13:31;102587.97;;;23.50;75.76
6028;BME280;3042;43.194;27.646;2022-10-16T09:16:13;102599.59;;;23.17;75.23
6028;BME280;3042;43.194;27.646;2022-10-16T09:18:45;102571.28;;;23.95;72.46
6028;BME280;3042;43.194;27.646;2022-10-16T09:21:19;102597.25;;;23.31;74.40
6028;BME280;3042;43.194;27.646;2022-10-16T09:23:48;102594.50;;;23.26;71.77
6028;BME280;3042;43.194;27.646;2022-10-16T09:26:16;102579.22;;;23.51;69.87
6028;BME280;3042;43.194;27.646;2022-10-16T09:28:46;102559.53;;;24.28;67.80
6028;BME280;3042;43.194;27.646;2022-10-16T09:31:17;102376.78;;;23.44;68.74
6028;BME280;3042;43.194;27.646;2022-10-16T09:33:47;102564.44;;;24.06;69.35
6028;BME280;3042;43.194;27.646;2022-10-16T09:36:17;102555.84;;;24.16;70.10
6028;BME280;3042;43.194;27.646;2022-10-16T09:38:46;102523.31;;;23.73;69.74
6028;BME280;3042;43.194;27.646;2022-10-16T09:41:18;102510.66;;;24.54;69.71
6028;BME280;3042;43.194;27.646;2022-10-16T09:43:52;102556.53;;;24.56;68.16
6028;BME280;3042;43.194;27.646;2022-10-16T09:46:25;102554.91;;;24.68;67.45
6028;BME280;3042;43.194;27.646;2022-10-16T09:48:54;102542.84;;;24.85;67.32
6028;BME280;3042;43.194;27.646;2022-10-16T09:51:25;102424.41;;;24.03;67.35
6028;BME280;3042;43.194;27.646;2022-10-16T09:53:58;102535.66;;;24.75;67.06
6028;BME280;3042;43.194;27.646;2022-10-16T09:56:27;102545.31;;;24.19;66.45
6028;BME280;3042;43.194;27.646;2022-10-16T09:58:58;102546.00;;;24.59;65.88
6028;BME280;3042;43.194;27.646;2022-10-16T10:01:30;102416.66;;;24.15;65.14
6028;BME280;3042;43.194;27.646;2022-10-16T10:04:02;102533.66;;;24.58;64.14
6028;BME280;3042;43.194;27.646;2022-10-16T10:06:31;102439.16;;;23.89;65.27
6028;BME280;3042;43.194;27.646;2022-10-16T10:09:04;102509.16;;;24.72;65.48
6028;BME280;3042;43.194;27.646;2022-10-16T10:11:43;102453.44;;;24.58;64.60
6028;BME280;3042;43.194;27.646;2022-10-16T10:14:19;102530.56;;;24.90;63.13
6028;BME280;3042;43.194;27.646;2022-10-16T10:16:47;102492.13;;;23.98;63.97
6028;BME280;3042;43.194;27.646;2022-10-16T10:19:17;102545.81;;;24.47;63.85
6028;BME280;3042;43.194;27.646;2022-10-16T10:24:30;102544.88;;;23.95;64.69
6028;BME280;3042;43.194;27.646;2022-10-16T10:27:05;102547.69;;;24.54;65.69
6028;BME280;3042;43.194;27.646;2022-10-16T10:29:46;102537.78;;;24.44;66.76
6028;BME280;3042;43.194;27.646;2022-10-16T10:32:21;102542.31;;;24.51;66.09
6028;BME280;3042;43.194;27.646;2022-10-16T10:35:06;102436.06;;;24.17;65.99
6028;BME280;3042;43.194;27.646;2022-10-16T10:37:45;102502.94;;;24.12;65.08
6028;BME280;3042;43.194;27.646;2022-10-16T10:40:27;102456.84;;;23.93;64.51
6028;BME280;3042;43.194;27.646;2022-10-16T10:43:01;102528.28;;;24.55;63.56
6028;BME280;3042;43.194;27.646;2022-10-16T10:45:42;102512.88;;;24.86;63.56
6028;BME280;3042;43.194;27.646;2022-10-16T10:48:19;102524.53;;;25.02;63.50
6028;BME280;3042;43.194;27.646;2022-10-16T10:50:54;102519.34;;;25.08;62.88
6028;BME280;3042;43.194;27.646;2022-10-16T10:53:37;102543.91;;;24.40;63.76
6028;BME280;3042;43.194;27.646;2022-10-16T10:56:16;102538.88;;;24.54;65.77
6028;BME280;3042;43.194;27.646;2022-10-16T11:01:50;102512.13;;;24.95;63.44
6028;BME280;3042;43.194;27.646;2022-10-16T11:04:44;102509.44;;;24.93;63.16
6028;BME280;3042;43.194;27.646;2022-10-16T11:07:18;102497.22;;;25.01;63.32
6028;BME280;3042;43.194;27.646;2022-10-16T11:09:49;102506.19;;;25.13;63.30
6028;BME280;3042;43.194;27.646;2022-10-16T11:12:24;102484.44;;;25.37;62.93
6028;BME280;3042;43.194;27.646;2022-10-16T11:14:58;102411.69;;;25.04;61.78
6028;BME280;3042;43.194;27.646;2022-10-16T11:17:33;102511.22;;;24.94;61.55
6028;BME280;3042;43.194;27.646;2022-10-16T11:20:10;102517.97;;;24.71;61.38
6028;BME280;3042;43.194;27.646;2022-10-16T11:22:40;102535.97;;;24.40;62.67
6028;BME280;3042;43.194;27.646;2022-10-16T11:25:14;102521.72;;;24.88;62.50
6028;BME280;3042;43.194;27.646;2022-10-16T11:27:45;102393.22;;;23.30;61.79
6028;BME280;3042;43.194;27.646;2022-10-16T11:30:20;102448.00;;;23.91;61.89
6028;BME280;3042;43.194;27.646;2022-10-16T11:33:00;102346.88;;;23.45;61.68
6028;BME280;3042;43.194;27.646;2022-10-16T11:35:38;102505.78;;;24.26;62.38
6028;BME280;3042;43.194;27.646;2022-10-16T11:38:14;102505.41;;;25.20;61.77
6028;BME280;3042;43.194;27.646;2022-10-16T11:40:47;102411.66;;;24.34;62.68
6028;BME280;3042;43.194;27.646;2022-10-16T11:43:24;102415.69;;;24.07;62.32
6028;BME280;3042;43.194;27.646;2022-10-16T11:45:55;102456.91;;;24.54;61.53
6028;BME280;3042;43.194;27.646;2022-10-16T11:48:32;102323.41;;;24.22;61.96
6028;BME280;3042;43.194;27.646;2022-10-16T11:51:09;102497.75;;;25.44;61.99
6028;BME280;3042;43.194;27.646;2022-10-16T11:53:45;102489.03;;;25.55;61.24
6028;BME280;3042;43.194;27.646;2022-10-16T11:56:15;102478.56;;;25.67;61.08
6028;BME280;3042;43.194;27.646;2022-10-16T11:58:52;102504.34;;;25.09;60.75
6028;BME280;3042;43.194;27.646;2022-10-16T12:01:27;102298.13;;;23.74;61.57
6028;BME280;3042;43.194;27.646;2022-10-16T12:04:04;102374.78;;;24.43;60.79
6028;BME280;3042;43.194;27.646;2022-10-16T12:06:37;102507.03;;;25.12;60.88
6028;BME280;3042;43.194;27.646;2022-10-16T12:09:15;102505.28;;;25.14;60.56
6028;BME280;3042;43.194;27.646;2022-10-16T12:11:45;102522.16;;;24.56;60.61
6028;BME280;3042;43.194;27.646;2022-10-16T12:14:33;102506.72;;;24.87;59.14
6028;BME280;3042;43.194;27.646;2022-10-16T12:17:03;102476.94;;;24.41;59.32
6028;BME280;3042;43.194;27.646;2022-10-16T12:19:33;102515.84;;;25.11;60.10
6028;BME280;3042;43.194;27.646;2022-10-16T12:22:02;102517.56;;;25.05;59.62
6028;BME280;3042;43.194;27.646;2022-10-16T12:24:34;102520.13;;;25.02;58.99
6028;BME280;3042;43.194;27.646;2022-10-16T12:27:24;102501.41;;;24.85;59.74
6028;BME280;3042;43.194;27.646;2022-10-16T12:29:55;102491.34;;;26.11;58.83
6028;BME280;3042;43.194;27.646;2022-10-16T12:32:28;102505.59;;;25.37;59.14
6028;BME280;3042;43.194;27.646;2022-10-16T12:34:59;102500.00;;;25.92;58.90
6028;BME280;3042;43.194;27.646;2022-10-16T12:37:29;102291.28;;;24.54;58.48
6028;BME280;3042;43.194;27.646;2022-10-16T12:39:58;102511.06;;;25.54;58.46
6028;BME280;3042;43.194;27.646;2022-10-16T12:42:34;102361.50;;;25.12;58.01
6028;BME280;3042;43.194;27.646;2022-10-16T12:45:22;102347.44;;;25.13;57.82
6028;BME280;3042;43.194;27.646;2022-10-16T12:47:52;102517.50;;;25.77;57.39
6028;BME280;3042;43.194;27.646;2022-10-16T12:50:27;102500.31;;;26.28;57.68
6028;BME280;3042;43.194;27.646;2022-10-16T12:52:56;102251.75;;;24.70;57.23
6028;BME280;3042;43.194;27.646;2022-10-16T12:55:27;102518.41;;;25.82;57.91
6028;BME280;3042;43.194;27.646;2022-10-16T12:58:11;102495.88;;;26.29;57.49
6028;BME280;3042;43.194;27.646;2022-10-16T13:00:45;102496.66;;;26.11;56.75
6028;BME280;3042;43.194;27.646;2022-10-16T13:03:42;102504.59;;;26.11;57.03
6028;BME280;3042;43.194;27.646;2022-10-16T13:06:22;102513.28;;;25.93;57.45
6028;BME280;3042;43.194;27.646;2022-10-16T13:09:05;102501.06;;;26.15;57.95
6028;BME280;3042;43.194;27.646;2022-10-16T13:11:49;102486.44;;;26.66;58.38
6028;BME280;3042;43.194;27.646;2022-10-16T13:14:32;102487.31;;;26.65;57.30
6028;BME280;3042;43.194;27.646;2022-10-16T13:17:06;102496.81;;;26.36;56.17
6028;BME280;3042;43.194;27.646;2022-10-16T13:19:42;102500.00;;;25.92;56.79